createdAt,value
2022-08-25T00:02:03.170Z,99841.84
2022-08-25T00:04:31.691Z,99835.56
2022-08-25T00:07:03.250Z,99839.38
2022-08-25T00:09:33.027Z,99839.94
2022-08-25T00:12:01.196Z,99840.53
2022-08-25T00:14:36.864Z,99837.84
2022-08-25T00:17:05.632Z,99826.91
2022-08-25T00:19:36.846Z,99832.38
2022-08-25T00:22:04.802Z,99838.34
2022-08-25T00:24:31.932Z,99832.38
2022-08-25T00:26:59.880Z,99834.53
2022-08-25T00:29:28.038Z,99835.69
2022-08-25T00:31:56.396Z,99836.25
2022-08-25T00:34:29.639Z,99837.38
2022-08-25T00:36:57.119Z,99835.75
2022-08-25T00:39:24.866Z,99836.84
2022-08-25T00:41:56.848Z,99834.66
2022-08-25T00:44:26.336Z,99833.91
2022-08-25T00:46:57.271Z,99837.44
2022-08-25T00:49:40.123Z,99839.09
2022-08-25T00:52:19.939Z,99842.66
2022-08-25T00:55:08.903Z,99839.13
2022-08-25T00:57:48.968Z,99831.53
2022-08-25T01:00:23.183Z,99833.16
2022-08-25T01:02:50.617Z,99835.06
2022-08-25T01:05:19.303Z,99832.63
2022-08-25T01:07:47.107Z,99829.91
2022-08-25T01:10:14.285Z,99827.78
2022-08-25T01:12:41.766Z,99834.28
2022-08-25T01:15:11.824Z,99827.25
2022-08-25T01:17:57.254Z,99826.16
2022-08-25T01:20:30.756Z,99828.06
2022-08-25T01:22:59.618Z,99825.63
2022-08-25T01:26:07.639Z,99819.34
2022-08-25T01:28:36.084Z,99823.72
2022-08-25T01:31:05.027Z,99821.28
2022-08-25T01:33:51.665Z,99825.06
2022-08-25T01:36:20.686Z,99825.34
2022-08-25T01:38:48.068Z,99827.81
2022-08-25T01:41:31.635Z,99828.34
2022-08-25T01:43:58.663Z,99824.81
2022-08-25T01:46:26.653Z,99819.38
2022-08-25T01:48:53.844Z,99820.75
2022-08-25T01:51:27.963Z,99822.38
2022-08-25T01:53:54.939Z,99813.66
2022-08-25T01:56:21.914Z,99821.84
2022-08-25T01:58:49.934Z,99822.13
2022-08-25T02:01:20.798Z,99814.78
2022-08-25T02:03:52.045Z,99828.91
2022-08-25T02:06:28.896Z,99815.31
2022-08-25T02:09:09.260Z,99825.38
2022-08-25T02:11:40.466Z,99822.94
2022-08-25T02:14:08.585Z,99822.66
2022-08-25T02:16:39.031Z,99826.19
2022-08-25T02:19:07.655Z,99819.13
2022-08-25T02:21:35.352Z,99819.69
2022-08-25T02:24:03.944Z,99809.06
2022-08-25T02:26:31.173Z,99809.31
2022-08-25T02:28:59.018Z,99815.88
2022-08-25T02:31:26.692Z,99814.75
2022-08-25T02:33:53.977Z,99809.31
2022-08-25T02:36:21.791Z,99807.69
2022-08-25T02:38:49.112Z,99810.41
2022-08-25T02:41:21.567Z,99805.50
2022-08-25T02:43:52.898Z,99806.28
2022-08-25T02:46:21.856Z,99803.31
2022-08-25T02:48:49.055Z,99802.78
2022-08-25T02:51:16.640Z,99797.31
2022-08-25T02:53:46.032Z,99798.94
2022-08-25T02:56:14.898Z,99795.66
2022-08-25T02:58:42.364Z,99800.84
2022-08-25T03:01:11.980Z,99799.47
2022-08-25T03:03:44.689Z,99802.19
2022-08-25T03:06:15.019Z,99804.09
2022-08-25T03:08:43.699Z,99800.28
2022-08-25T03:11:11.176Z,99799.44
2022-08-25T03:13:38.396Z,99795.94
2022-08-25T03:16:10.914Z,99802.47
2022-08-25T03:18:42.082Z,99800.00
2022-08-25T03:21:11.594Z,99789.38
2022-08-25T03:23:39.974Z,99797.28
2022-08-25T03:26:26.396Z,99797.78
2022-08-25T03:28:55.375Z,99797.78
2022-08-25T03:31:26.815Z,99798.31
2022-08-25T03:33:54.823Z,99803.19
2022-08-25T03:36:21.846Z,99797.22
2022-08-25T03:38:48.898Z,99802.38
2022-08-25T03:41:22.480Z,99796.41
2022-08-25T03:43:50.376Z,99806.13
2022-08-25T03:46:23.872Z,99799.88
2022-08-25T03:48:52.150Z,99802.91
2022-08-25T03:51:29.119Z,99793.34
2022-08-25T03:53:56.576Z,99793.13
2022-08-25T03:56:23.570Z,99780.03
2022-08-25T03:58:51.535Z,99768.38
2022-08-25T04:01:18.666Z,99774.06
2022-08-25T04:03:46.674Z,99772.16
2022-08-25T04:06:15.547Z,99780.84
2022-08-25T04:08:42.556Z,99771.56
2022-08-25T04:11:17.950Z,99772.38
2022-08-25T04:13:46.615Z,99772.34
2022-08-25T04:16:22.035Z,99768.22
2022-08-25T04:18:52.785Z,99777.50
2022-08-25T04:21:21.814Z,99785.66
2022-08-25T04:23:51.350Z,99781.28
2022-08-25T04:26:28.294Z,99780.16
2022-08-25T04:28:58.268Z,99780.16
2022-08-25T04:31:26.048Z,99785.59
2022-08-25T04:33:53.150Z,99784.78
2022-08-25T04:36:21.015Z,99796.19
2022-08-25T04:38:49.665Z,99796.97
2022-08-25T04:41:20.899Z,99793.13
2022-08-25T04:43:48.092Z,99798.56
2022-08-25T04:46:20.519Z,99793.66
2022-08-25T04:48:49.430Z,99795.59
2022-08-25T04:51:23.459Z,99789.91
2022-08-25T04:53:51.517Z,99788.28
2022-08-25T04:56:25.016Z,99786.09
2022-08-25T04:58:53.994Z,99782.84
2022-08-25T05:01:24.856Z,99789.34
2022-08-25T05:04:01.391Z,99798.84
2022-08-25T05:06:30.130Z,99782.56
2022-08-25T05:08:58.550Z,99786.63
2022-08-25T05:11:26.516Z,99787.19
2022-08-25T05:13:56.744Z,99782.03
2022-08-25T05:16:26.994Z,99789.91
2022-08-25T05:18:55.539Z,99786.38
2022-08-25T05:21:27.124Z,99783.69
2022-08-25T05:23:58.958Z,99783.41
2022-08-25T05:26:28.466Z,99783.69
2022-08-25T05:28:56.938Z,99783.69
2022-08-25T05:31:26.067Z,99779.88
2022-08-25T05:33:54.648Z,99773.06
2022-08-25T05:36:23.570Z,99774.41
2022-08-25T05:38:50.926Z,99773.09
2022-08-25T05:41:21.726Z,99777.97
2022-08-25T05:43:50.646Z,99780.16
2022-08-25T05:46:21.077Z,99773.63
2022-08-25T05:48:48.775Z,99776.91
2022-08-25T05:51:16.836Z,99777.72
2022-08-25T05:53:46.844Z,99771.47
2022-08-25T05:56:14.362Z,99779.91
2022-08-25T05:58:43.279Z,99785.06
2022-08-25T06:01:37.741Z,99787.22
2022-08-25T06:04:05.469Z,99785.09
2022-08-25T06:06:32.591Z,99787.06
2022-08-25T06:08:59.647Z,99775.41
2022-08-25T06:11:27.631Z,99781.41
2022-08-25T06:13:54.982Z,99779.53
2022-08-25T06:16:21.959Z,99782.53
2022-08-25T06:18:48.973Z,99790.44
2022-08-25T06:21:17.222Z,99791.78
2022-08-25T06:23:44.478Z,99781.47
2022-08-25T06:26:19.559Z,99783.13
2022-08-25T06:28:50.819Z,99781.22
2022-08-25T06:31:18.886Z,99788.84
2022-08-25T06:33:46.388Z,99793.50
2022-08-25T06:36:14.305Z,99785.34
2022-08-25T06:38:41.619Z,99783.22
2022-08-25T06:41:10.791Z,99783.75
2022-08-25T06:43:38.361Z,99777.22
2022-08-25T06:46:17.671Z,99773.94
2022-08-25T06:48:45.062Z,99785.38
2022-08-25T06:51:16.255Z,99779.94
2022-08-25T06:53:46.253Z,99777.47
2022-08-25T06:56:13.422Z,99777.19
2022-08-25T06:58:40.465Z,99780.69
2022-08-25T07:01:25.932Z,99773.06
2022-08-25T07:03:57.587Z,99770.34
2022-08-25T07:06:29.407Z,99769.47
2022-08-25T07:08:56.390Z,99760.75
2022-08-25T07:11:24.183Z,99765.06
2022-08-25T07:13:51.439Z,99762.88
2022-08-25T07:16:20.548Z,99766.13
2022-08-25T07:18:48.975Z,99767.16
2022-08-25T07:21:16.914Z,99765.22
2022-08-25T07:23:44.517Z,99769.28
2022-08-25T07:26:41.102Z,99768.97
2022-08-25T07:29:31.735Z,99762.06
2022-08-25T07:32:02.058Z,99761.47
2022-08-25T07:34:52.274Z,99764.13
2022-08-25T07:37:45.445Z,99760.47
2022-08-25T07:40:17.590Z,99752.97
2022-08-25T07:42:45.291Z,99756.75
2022-08-25T07:45:13.758Z,99755.91
2022-08-25T07:47:42.647Z,99758.31
2022-08-25T07:50:12.998Z,99765.34
2022-08-25T07:52:42.036Z,99766.88
2022-08-25T07:55:11.059Z,99768.44
2022-08-25T07:57:41.375Z,99767.19
2022-08-25T08:00:11.054Z,99758.38
2022-08-25T08:02:42.378Z,99766.13
2022-08-25T08:05:12.004Z,99767.09
2022-08-25T08:07:43.473Z,99757.91
2022-08-25T08:10:47.876Z,99761.50
2022-08-25T08:13:02.269Z,99762.75
2022-08-25T08:15:30.310Z,99775.00
2022-08-25T08:17:59.369Z,99772.41
2022-08-25T08:20:28.698Z,99770.69
2022-08-25T08:22:55.724Z,99766.91
2022-08-25T08:25:27.085Z,99770.38
2022-08-25T08:27:55.369Z,99765.78
2022-08-25T08:30:25.918Z,99773.31
2022-08-25T08:33:11.715Z,99773.53
2022-08-25T08:35:41.476Z,99778.81
2022-08-25T08:38:14.887Z,99776.59
2022-08-25T08:41:36.745Z,99767.75
2022-08-25T08:44:46.223Z,99757.69
2022-08-25T08:47:40.732Z,99755.38
2022-08-25T08:50:45.115Z,99761.50
2022-08-25T08:53:40.643Z,99764.13
2022-08-25T08:56:25.652Z,99758.84
2022-08-25T08:59:15.877Z,99756.34
2022-08-25T09:01:56.496Z,99747.31
2022-08-25T09:04:51.071Z,99752.97
2022-08-25T09:07:39.238Z,99760.28
2022-08-25T09:10:10.237Z,99759.38
2022-08-25T09:13:12.833Z,99755.31
2022-08-25T09:16:37.851Z,99749.25
2022-08-25T09:19:21.267Z,99746.19
2022-08-25T09:22:34.938Z,99746.06
2022-08-25T09:25:53.419Z,99750.22
2022-08-25T09:28:32.239Z,99745.53
2022-08-25T09:31:30.452Z,99740.41
2022-08-25T09:34:02.187Z,99732.06
2022-08-25T09:36:33.221Z,99730.59
2022-08-25T09:39:09.840Z,99726.28
2022-08-25T09:41:51.402Z,99715.53
2022-08-25T09:44:43.647Z,99719.16
2022-08-25T09:47:23.901Z,99713.91
2022-08-25T09:49:53.050Z,99717.81
2022-08-25T09:52:28.900Z,99722.56
2022-08-25T09:55:21.063Z,99713.34
2022-08-25T09:57:55.842Z,99704.41
2022-08-25T10:00:26.753Z,99714.47
2022-08-25T10:03:22.876Z,99715.50
2022-08-25T10:06:13.264Z,99690.75
2022-08-25T10:08:43.234Z,99693.84
2022-08-25T10:11:15.230Z,99687.41
2022-08-25T10:13:46.643Z,99683.56
2022-08-25T10:16:34.483Z,99686.63
2022-08-25T10:19:21.747Z,99683.09
2022-08-25T10:22:05.359Z,99683.75
2022-08-25T10:24:32.959Z,99683.44
2022-08-25T10:27:38.985Z,99668.88
2022-08-25T10:30:15.603Z,99665.47
2022-08-25T10:33:45.170Z,99667.94
2022-08-25T10:36:23.059Z,99656.94
2022-08-25T10:38:57.026Z,99665.03
2022-08-25T10:41:57.276Z,99658.22
2022-08-25T10:44:52.763Z,99654.66
2022-08-25T10:47:42.681Z,99646.53
2022-08-25T10:50:23.604Z,99658.16
2022-08-25T10:53:10.942Z,99651.22
2022-08-25T10:55:55.068Z,99640.03
2022-08-25T10:58:54.342Z,99638.06
2022-08-25T11:01:47.267Z,99629.50
2022-08-25T11:04:42.167Z,99628.31
2022-08-25T11:07:37.863Z,99634.34
2022-08-25T11:10:20.095Z,99625.13
2022-08-25T11:12:59.711Z,99624.47
2022-08-25T11:16:16.537Z,99610.69
2022-08-25T11:19:19.478Z,99621.38
2022-08-25T11:22:19.271Z,99613.56
2022-08-25T11:25:11.685Z,99622.53
2022-08-25T11:28:22.353Z,99618.09
2022-08-25T11:30:52.415Z,99612.19
2022-08-25T11:33:20.143Z,99604.22
2022-08-25T11:36:19.932Z,99599.06
2022-08-25T11:39:25.157Z,99614.72
2022-08-25T11:42:17.547Z,99606.28
2022-08-25T11:45:11.905Z,99609.38
2022-08-25T11:48:25.106Z,99601.84
2022-08-25T11:51:30.921Z,99603.88
2022-08-25T11:54:41.744Z,99597.81
2022-08-25T11:57:28.998Z,99602.09
2022-08-25T12:00:12.238Z,99591.41
2022-08-25T12:02:47.312Z,99602.28
2022-08-25T12:05:17.363Z,99590.97
2022-08-25T12:07:47.675Z,99585.13
2022-08-25T12:10:26.190Z,99586.75
2022-08-25T12:13:02.110Z,99586.00
2022-08-25T12:15:31.714Z,99582.84
2022-08-25T12:18:15.288Z,99586.94
2022-08-25T12:20:54.876Z,99570.81
2022-08-25T12:23:44.850Z,99569.84
2022-08-25T12:26:29.485Z,99563.47
2022-08-25T12:29:28.819Z,99567.88
2022-08-25T12:32:09.438Z,99565.22
2022-08-25T12:35:22.295Z,99557.78
2022-08-25T12:37:57.499Z,99559.34
2022-08-25T12:40:36.635Z,99564.72
2022-08-25T12:43:27.594Z,99557.75
2022-08-25T12:46:22.885Z,99554.28
2022-08-25T12:49:28.696Z,99541.72
2022-08-25T12:52:05.304Z,99542.63
2022-08-25T12:54:59.422Z,99543.56
2022-08-25T12:57:50.906Z,99544.25
2022-08-25T13:03:30.032Z,99538.84
2022-08-25T13:06:41.078Z,99548.63
2022-08-25T13:10:08.673Z,99533.19
2022-08-25T13:13:38.958Z,99542.09
2022-08-25T13:16:15.486Z,99530.81
2022-08-25T13:18:42.627Z,99524.09
2022-08-25T13:21:20.283Z,99524.69
2022-08-25T13:23:54.115Z,99521.19
2022-08-25T13:26:48.499Z,99523.22
2022-08-25T13:29:25.161Z,99528.09
2022-08-25T13:31:59.852Z,99519.91
2022-08-25T13:34:42.809Z,99520.28
2022-08-25T13:37:31.229Z,99522.25
2022-08-25T13:40:24.480Z,99508.75
2022-08-25T13:43:01.245Z,99501.88
2022-08-25T13:45:41.144Z,99506.47
2022-08-25T13:48:22.673Z,99504.84
2022-08-25T13:50:51.869Z,99506.00
2022-08-25T13:53:26.190Z,99501.28
2022-08-25T13:56:01.848Z,99505.78
2022-08-25T13:58:44.380Z,99498.19
2022-08-25T14:01:23.687Z,99489.91
2022-08-25T14:04:32.488Z,99488.06
2022-08-25T14:07:19.481Z,99487.13
2022-08-25T14:10:00.265Z,99476.03
2022-08-25T14:12:41.351Z,99485.91
2022-08-25T14:15:17.421Z,99477.00
2022-08-25T14:17:49.563Z,99466.50
2022-08-25T14:20:28.726Z,99477.41
2022-08-25T14:23:07.888Z,99467.44
2022-08-25T14:25:37.405Z,99468.94
2022-08-25T14:28:14.388Z,99461.31
2022-08-25T14:30:47.352Z,99463.50
2022-08-25T14:33:17.643Z,99461.31
2022-08-25T14:35:50.531Z,99462.53
2022-08-25T14:38:19.648Z,99456.47
2022-08-25T14:40:48.246Z,99450.03
2022-08-25T14:43:15.614Z,99444.38
2022-08-25T14:45:46.817Z,99450.81
2022-08-25T14:48:29.172Z,99440.41
2022-08-25T14:50:59.670Z,99441.78
2022-08-25T14:53:27.807Z,99434.03
2022-08-25T14:55:59.329Z,99429.00
2022-08-25T14:58:27.985Z,99432.88
2022-08-25T15:01:02.520Z,99421.94
2022-08-25T15:03:39.185Z,99424.75
2022-08-25T15:06:07.164Z,99422.03
2022-08-25T15:08:52.434Z,99420.25
2022-08-25T15:11:19.456Z,99428.34
2022-08-25T15:13:49.774Z,99434.78
2022-08-25T15:16:38.146Z,99433.47
2022-08-25T15:19:14.311Z,99438.03
2022-08-25T15:21:44.422Z,99421.91
2022-08-25T15:24:17.716Z,99426.16
2022-08-25T15:29:29.950Z,99424.72
2022-08-25T15:31:58.907Z,99422.88
2022-08-25T15:34:26.413Z,99416.19
2022-08-25T15:36:53.472Z,99422.19
2022-08-25T15:39:20.674Z,99409.75
2022-08-25T15:41:57.475Z,99413.19
2022-08-25T15:44:29.183Z,99404.22
2022-08-25T15:47:00.633Z,99400.78
2022-08-25T15:49:29.831Z,99397.78
2022-08-25T15:51:58.797Z,99400.75
2022-08-25T15:54:27.425Z,99399.16
2022-08-25T15:56:57.368Z,99396.75
2022-08-25T15:59:26.602Z,99393.63
2022-08-25T16:01:54.866Z,99393.97
2022-08-25T16:04:26.260Z,99395.13
2022-08-25T16:06:54.161Z,99382.94
2022-08-25T16:09:23.525Z,99388.13
2022-08-25T16:11:55.905Z,99399.16
2022-08-25T16:14:24.338Z,99397.78
2022-08-25T16:16:52.576Z,99390.88
2022-08-25T16:19:19.611Z,99389.28
2022-08-25T16:21:47.543Z,99387.75
2022-08-25T16:24:15.403Z,99387.53
2022-08-25T16:26:48.181Z,99384.19
2022-08-25T16:29:16.624Z,99387.88
2022-08-25T16:31:45.346Z,99387.78
2022-08-25T16:34:20.655Z,99378.91
2022-08-25T16:36:47.672Z,99377.06
2022-08-25T16:39:19.935Z,99378.50
2022-08-25T16:41:47.828Z,99372.88
2022-08-25T16:44:15.130Z,99377.59
2022-08-25T16:46:44.165Z,99370.44
2022-08-25T16:49:13.808Z,99375.41
2022-08-25T16:51:43.167Z,99370.34
2022-08-25T16:54:30.617Z,99369.25
2022-08-25T16:56:57.636Z,99370.50
2022-08-25T16:59:25.790Z,99360.75
2022-08-25T17:01:53.457Z,99367.16
2022-08-25T17:04:21.034Z,99368.91
2022-08-25T17:06:59.497Z,99367.06
2022-08-25T17:09:26.636Z,99367.63
2022-08-25T17:11:56.709Z,99366.03
2022-08-25T17:14:24.431Z,99361.19
2022-08-25T17:16:54.953Z,99362.69
2022-08-25T17:19:23.774Z,99361.88
2022-08-25T17:21:53.690Z,99361.56
2022-08-25T17:24:20.934Z,99366.50
2022-08-25T17:26:51.102Z,99363.59
2022-08-25T17:29:19.042Z,99366.25
2022-08-25T17:31:48.529Z,99368.16
2022-08-25T17:34:21.347Z,99372.63
2022-08-25T17:36:51.568Z,99371.53
2022-08-25T17:39:19.742Z,99366.66
2022-08-25T17:41:50.729Z,99370.44
2022-08-25T17:44:18.396Z,99372.13
2022-08-25T17:46:47.086Z,99373.06
2022-08-25T17:49:18.209Z,99369.84
2022-08-25T17:51:45.532Z,99369.81
2022-08-25T17:54:13.512Z,99376.69
2022-08-25T17:56:41.245Z,99378.50
2022-08-25T17:59:08.814Z,99379.22
2022-08-25T18:01:40.713Z,99383.78
2022-08-25T18:04:18.009Z,99379.94
2022-08-25T18:06:48.406Z,99380.81
2022-08-25T18:09:16.392Z,99380.41
2022-08-25T18:11:45.545Z,99373.84
2022-08-25T18:14:16.411Z,99377.63
2022-08-25T18:16:43.485Z,99382.03
2022-08-25T18:19:12.383Z,99381.78
2022-08-25T18:21:43.455Z,99379.75
2022-08-25T18:24:11.283Z,99381.25
2022-08-25T18:26:38.270Z,99383.75
2022-08-25T18:29:06.610Z,99382.50
2022-08-25T18:31:33.661Z,99379.00
2022-08-25T18:34:00.894Z,99383.06
2022-08-25T18:36:28.246Z,99383.91
2022-08-25T18:39:13.802Z,99384.25
2022-08-25T18:41:42.692Z,99388.34
2022-08-25T18:44:12.137Z,99387.69
2022-08-25T18:46:42.678Z,99389.84
2022-08-25T18:49:09.811Z,99386.47
2022-08-25T18:51:37.396Z,99383.56
2022-08-25T18:54:05.550Z,99388.28
2022-08-25T18:56:34.133Z,99386.84
2022-08-25T18:59:01.145Z,99393.13
2022-08-25T19:01:28.659Z,99387.97
2022-08-25T19:03:56.648Z,99387.66
2022-08-25T19:06:23.901Z,99388.97
2022-08-25T19:08:50.954Z,99391.56
2022-08-25T19:11:22.360Z,99390.59
2022-08-25T19:13:51.055Z,99383.31
2022-08-25T19:16:40.292Z,99385.59
2022-08-25T19:19:12.427Z,99388.50
2022-08-25T19:21:42.640Z,99384.47
2022-08-25T19:24:12.149Z,99387.84
2022-08-25T19:26:40.477Z,99386.88
2022-08-25T19:29:14.771Z,99392.38
2022-08-25T19:31:44.524Z,99383.47
2022-08-25T19:34:18.693Z,99385.44
2022-08-25T19:36:47.532Z,99382.47
2022-08-25T19:39:16.391Z,99383.94
2022-08-25T19:41:46.795Z,99383.13
2022-08-25T19:44:15.728Z,99383.28
2022-08-25T19:46:44.983Z,99385.69
2022-08-25T19:49:31.737Z,99387.97
2022-08-25T19:52:05.035Z,99388.31
2022-08-25T19:54:45.687Z,99396.88
2022-08-25T19:57:27.958Z,99387.31
2022-08-25T20:00:07.844Z,99393.47
2022-08-25T20:02:39.131Z,99386.66
2022-08-25T20:05:06.726Z,99395.72
2022-08-25T20:07:35.086Z,99399.91
2022-08-25T20:10:04.915Z,99397.97
2022-08-25T20:12:32.389Z,99393.28
2022-08-25T20:14:59.372Z,99394.75
2022-08-25T20:17:28.451Z,99393.75
2022-08-25T20:20:01.100Z,99402.31
2022-08-25T20:22:31.761Z,99397.50
2022-08-25T20:25:13.030Z,99403.78
2022-08-25T20:27:46.081Z,99404.09
2022-08-25T20:30:25.997Z,99402.31
2022-08-25T20:32:55.725Z,99401.81
2022-08-25T20:35:26.793Z,99394.69
2022-08-25T20:37:56.683Z,99399.06
2022-08-25T20:40:27.723Z,99407.63
2022-08-25T20:42:59.257Z,99395.84
2022-08-25T20:45:26.433Z,99401.66
2022-08-25T20:47:53.661Z,99398.44
2022-08-25T20:50:22.760Z,99408.41
2022-08-25T20:52:51.401Z,99405.81
2022-08-25T20:55:18.911Z,99405.66
2022-08-25T20:57:46.916Z,99403.41
2022-08-25T21:00:16.600Z,99409.53
2022-08-25T21:02:46.169Z,99412.88
2022-08-25T21:05:13.998Z,99410.59
2022-08-25T21:07:41.781Z,99407.50
2022-08-25T21:10:14.476Z,99410.56
2022-08-25T21:12:42.426Z,99409.56
2022-08-25T21:15:10.954Z,99410.34
2022-08-25T21:17:38.555Z,99414.22
2022-08-25T21:20:08.107Z,99409.34
2022-08-25T21:22:37.048Z,99417.09
2022-08-25T21:25:05.352Z,99412.84
2022-08-25T21:27:33.784Z,99410.09
2022-08-25T21:30:00.904Z,99413.63
2022-08-25T21:32:27.877Z,99417.63
2022-08-25T21:34:55.609Z,99414.41
2022-08-25T21:37:24.444Z,99422.09
2022-08-25T21:39:51.611Z,99414.81
2022-08-25T21:42:20.919Z,99422.00
2022-08-25T21:44:49.344Z,99417.00
2022-08-25T21:47:21.179Z,99418.34
2022-08-25T21:49:49.613Z,99414.53
2022-08-25T21:52:17.763Z,99417.50
2022-08-25T21:54:45.332Z,99415.88
2022-08-25T21:57:12.679Z,99419.22
2022-08-25T21:59:42.816Z,99421.09
2022-08-25T22:02:13.062Z,99421.38
2022-08-25T22:04:41.953Z,99421.97
2022-08-25T22:07:10.960Z,99422.66
2022-08-25T22:09:39.013Z,99420.34
2022-08-25T22:12:07.219Z,99420.34
2022-08-25T22:14:35.708Z,99410.84
2022-08-25T22:17:03.124Z,99418.53
2022-08-25T22:19:30.234Z,99410.84
2022-08-25T22:22:01.456Z,99412.91
2022-08-25T22:24:28.627Z,99409.53
2022-08-25T22:26:56.516Z,99405.69
2022-08-25T22:29:25.487Z,99415.50
2022-08-25T22:31:59.410Z,99420.31
2022-08-25T22:34:32.006Z,99409.78
2022-08-25T22:37:04.207Z,99411.91
2022-08-25T22:39:34.456Z,99412.13
2022-08-25T22:42:02.678Z,99411.91
2022-08-25T22:44:29.978Z,99412.72
2022-08-25T22:46:57.077Z,99406.44
2022-08-25T22:49:24.056Z,99417.69
2022-08-25T22:51:51.571Z,99416.19
2022-08-25T22:54:22.511Z,99406.34
2022-08-25T22:56:51.088Z,99415.47
2022-08-25T22:59:18.072Z,99411.94
2022-08-25T23:01:45.729Z,99405.97
2022-08-25T23:04:14.564Z,99408.88
2022-08-25T23:06:41.639Z,99401.88
2022-08-25T23:09:10.751Z,99400.50
2022-08-25T23:11:39.209Z,99396.63
2022-08-25T23:14:10.840Z,99404.84
2022-08-25T23:16:41.654Z,99415.56
2022-08-25T23:19:13.940Z,99402.47
2022-08-25T23:22:01.653Z,99396.69
2022-08-25T23:24:30.890Z,99406.44
2022-08-25T23:27:00.834Z,99393.06
2022-08-25T23:29:28.531Z,99399.34
2022-08-25T23:31:57.571Z,99402.09
2022-08-25T23:34:25.715Z,99395.28
2022-08-25T23:36:53.389Z,99397.50
2022-08-25T23:39:21.822Z,99401.38
2022-08-25T23:41:49.913Z,99398.13
2022-08-25T23:44:18.582Z,99396.00
2022-08-25T23:46:47.718Z,99389.53
2022-08-25T23:49:20.728Z,99396.00
2022-08-25T23:51:51.765Z,99396.78
2022-08-25T23:54:21.241Z,99389.72
2022-08-25T23:56:51.864Z,99392.75
2022-08-25T23:59:24.499Z,99389.31
